Time;durP1;ratioP1;P1;durP2;ratioP2;P2;SDS_P1;SDS_P2;PMS_P1;PMS_P2;Temp;Humidity;BMP_temperature;BMP_pressure;BME280_temperature;BME280_humidity;BME280_pressure;Samples;Min_cycle;Max_cycle;Signal;HPM_P1;HPM_P2
2020/12/14 00:00:23;;;;;;;4.68;2.97;;;;;;;4.51;75.92;92809.66;5043833;28;20077;-69
2020/12/14 00:02:48;;;;;;;4.10;2.75;;;;;;;4.55;76.36;92813.53;5047763;28;20076;-68
2020/12/14 00:05:14;;;;;;;10.65;6.22;;;;;;;4.63;75.58;92828.06;5045210;28;20040;-69
2020/12/14 00:07:40;;;;;;;8.38;5.13;;;;;;;4.68;75.42;92829.22;5047846;28;20025;-68
2020/12/14 00:10:06;;;;;;;7.95;3.72;;;;;;;4.48;76.20;92810.72;5043489;28;20033;-68
2020/12/14 00:12:32;;;;;;;5.90;3.55;;;;;;;4.57;75.85;92813.75;5047578;28;20033;-68
2020/12/14 00:14:57;;;;;;;18.05;10.52;;;;;;;4.64;75.61;92820.59;5042166;28;20381;-68
2020/12/14 00:17:23;;;;;;;5.70;3.55;;;;;;;4.73;75.03;92820.19;5045624;28;20037;-68
2020/12/14 00:19:48;;;;;;;3.47;2.50;;;;;;;4.74;75.37;92826.38;5046834;28;20124;-68
2020/12/14 00:22:14;;;;;;;4.35;2.20;;;;;;;4.82;75.25;92824.47;5043803;28;20021;-68
2020/12/14 00:24:39;;;;;;;2.40;1.77;;;;;;;4.72;74.99;92824.16;5047639;28;20033;-68
2020/12/14 00:27:05;;;;;;;7.95;4.38;;;;;;;4.64;75.64;92812.38;5044801;28;20067;-68
2020/12/14 00:29:30;;;;;;;4.57;2.80;;;;;;;4.76;75.96;92829.34;5046889;28;20029;-68
2020/12/14 00:31:56;;;;;;;3.35;2.28;;;;;;;4.69;75.61;92830.69;5040939;28;20020;-68
2020/12/14 00:34:22;;;;;;;6.30;2.72;;;;;;;4.74;75.97;92818.94;5046071;28;20128;-68
2020/12/14 00:36:48;;;;;;;2.80;2.08;;;;;;;4.59;76.24;92822.16;5041102;28;20036;-68
2020/12/14 00:39:13;;;;;;;4.95;2.25;;;;;;;4.70;75.65;92825.97;5042147;28;20460;-68
2020/12/14 00:41:39;;;;;;;2.67;2.10;;;;;;;4.72;75.65;92848.06;5047337;28;20024;-68
2020/12/14 00:44:05;;;;;;;2.75;1.73;;;;;;;4.72;75.79;92828.91;5047188;28;20021;-68
2020/12/14 00:46:31;;;;;;;3.83;2.22;;;;;;;4.84;74.92;92846.56;5047087;28;20065;-69
2020/12/14 00:48:56;;;;;;;3.55;2.42;;;;;;;4.77;74.87;92844.47;5044860;28;22069;-69
2020/12/14 00:51:29;;;;;;;6.07;2.90;;;;;;;4.67;75.13;92846.88;5045338;28;20119;-69
2020/12/14 00:53:55;;;;;;;3.78;2.60;;;;;;;4.76;75.14;92862.88;5045443;28;20070;-69
2020/12/14 00:56:20;;;;;;;3.00;2.20;;;;;;;4.75;75.78;92844.25;5046878;28;20035;-68
2020/12/14 00:58:46;;;;;;;4.40;2.15;;;;;;;4.70;75.53;92853.31;5045592;28;21730;-69
2020/12/14 01:01:13;;;;;;;2.95;1.80;;;;;;;4.58;75.35;92848.03;5044886;28;20090;-68
2020/12/14 01:03:38;;;;;;;5.85;2.92;;;;;;;4.72;75.90;92851.50;5046828;28;20021;-69
2020/12/14 01:06:04;;;;;;;2.50;2.03;;;;;;;4.56;75.96;92852.56;5044602;28;20033;-69
2020/12/14 01:08:29;;;;;;;3.28;1.80;;;;;;;4.67;76.53;92860.56;5041373;28;20085;-68
2020/12/14 01:10:55;;;;;;;2.13;1.75;;;;;;;4.69;75.87;92857.28;5040043;28;20025;-68
2020/12/14 01:13:20;;;;;;;5.57;3.53;;;;;;;4.77;75.52;92866.34;5045322;28;20116;-68
2020/12/14 01:15:46;;;;;;;4.90;3.22;;;;;;;4.85;75.69;92865.19;5045272;28;20032;-68
2020/12/14 01:18:12;;;;;;;3.30;1.90;;;;;;;4.73;75.10;92874.88;5044573;28;20028;-68
2020/12/14 01:20:41;;;;;;;4.40;2.83;;;;;;;4.69;75.63;92876.44;5045822;28;20032;-68
2020/12/14 01:23:07;;;;;;;1.92;1.65;;;;;;;4.47;75.84;92880.28;5037438;28;20043;-68
2020/12/14 01:25:32;;;;;;;2.53;1.90;;;;;;;4.47;75.90;92881.03;5042766;28;20033;-68
2020/12/14 01:27:57;;;;;;;3.10;1.67;;;;;;;4.27;76.12;92878.13;5044687;28;20036;-68
2020/12/14 01:30:24;;;;;;;2.58;1.83;;;;;;;4.22;76.79;92882.44;5044281;28;20032;-68
2020/12/14 01:32:52;;;;;;;2.53;1.50;;;;;;;4.24;76.77;92879.19;5042974;28;20037;-68
2020/12/14 01:35:18;;;;;;;2.67;1.70;;;;;;;4.31;77.14;92870.41;5043415;28;20060;-68
2020/12/14 01:37:43;;;;;;;2.47;1.75;;;;;;;4.34;76.93;92880.25;5045171;28;20521;-69
2020/12/14 01:40:09;;;;;;;3.08;1.90;;;;;;;4.46;75.89;92868.63;5045963;28;20107;-69
2020/12/14 01:42:39;;;;;;;3.90;1.92;;;;;;;4.39;75.70;92863.06;5043133;28;20025;-69
2020/12/14 01:45:04;;;;;;;2.53;1.60;;;;;;;4.42;75.86;92870.94;5044083;28;20029;-69
2020/12/14 01:47:35;;;;;;;2.40;1.85;;;;;;;4.19;75.85;92872.56;5042096;28;20029;-69
2020/12/14 01:50:01;;;;;;;2.72;1.95;;;;;;;4.21;76.13;92867.31;5044729;28;20063;-69
2020/12/14 01:52:26;;;;;;;2.30;1.63;;;;;;;4.28;75.92;92860.50;5042629;28;20068;-70
2020/12/14 01:54:53;;;;;;;2.65;1.45;;;;;;;4.29;75.93;92862.69;5046151;28;20534;-70
2020/12/14 01:57:19;;;;;;;8.63;4.57;;;;;;;4.27;76.02;92854.28;5044214;28;20036;-70
2020/12/14 01:59:45;;;;;;;2.63;1.85;;;;;;;4.30;75.71;92852.50;5042206;28;20056;-69
2020/12/14 02:02:10;;;;;;;1.75;1.33;;;;;;;4.45;75.38;92871.88;5044724;28;20024;-70
2020/12/14 02:04:36;;;;;;;5.30;3.28;;;;;;;4.53;75.71;92865.28;5042286;28;20029;-70
2020/12/14 02:07:02;;;;;;;1.55;1.45;;;;;;;4.32;75.74;92856.19;5043939;28;20036;-70
2020/12/14 02:09:27;;;;;;;3.63;2.17;;;;;;;4.51;75.74;92867.06;5042172;28;20041;-69
2020/12/14 02:11:53;;;;;;;4.63;2.67;;;;;;;4.56;75.24;92877.16;5041181;28;20025;-68
2020/12/14 02:14:18;;;;;;;3.92;2.53;;;;;;;4.53;74.87;92865.28;5045088;28;20029;-68
2020/12/14 02:16:44;;;;;;;2.78;1.75;;;;;;;4.56;74.68;92860.75;5042054;28;20562;-68
2020/12/14 02:19:09;;;;;;;2.60;1.45;;;;;;;4.56;73.89;92871.69;5040945;28;20041;-68
2020/12/14 02:21:35;;;;;;;2.28;1.58;;;;;;;4.62;74.27;92861.38;5042770;28;20036;-70
2020/12/14 02:24:00;;;;;;;2.03;1.65;;;;;;;4.63;74.07;92873.81;5047113;28;20029;-69
2020/12/14 02:26:25;;;;;;;2.47;1.65;;;;;;;4.68;73.85;92866.78;5047585;28;20033;-69
2020/12/14 02:28:51;;;;;;;2.03;1.60;;;;;;;4.76;73.73;92867.63;5047933;28;20021;-69
2020/12/14 02:31:16;;;;;;;3.00;2.00;;;;;;;4.66;73.94;92861.09;5047940;28;20032;-69
2020/12/14 02:33:41;;;;;;;2.75;1.77;;;;;;;4.71;74.22;92871.19;5047600;28;20045;-70
2020/12/14 02:36:07;;;;;;;2.35;1.92;;;;;;;4.73;73.64;92861.19;5047807;28;20037;-69
2020/12/14 02:38:33;;;;;;;2.38;1.45;;;;;;;4.61;73.69;92868.84;5049837;28;20095;-69
2020/12/14 02:40:58;;;;;;;1.70;1.52;;;;;;;4.46;74.00;92854.25;5048274;28;20155;-69
2020/12/14 02:43:23;;;;;;;1.70;1.60;;;;;;;4.50;74.29;92869.03;5045280;28;20021;-69
2020/12/14 02:45:49;;;;;;;2.45;1.30;;;;;;;4.60;74.29;92858.44;5045983;28;20013;-69
2020/12/14 02:48:14;;;;;;;2.25;1.45;;;;;;;4.47;73.88;92864.63;5048058;28;20013;-68
2020/12/14 02:50:40;;;;;;;2.50;1.27;;;;;;;4.42;73.69;92853.78;5046216;28;20029;-68
2020/12/14 02:53:05;;;;;;;1.98;1.30;;;;;;;4.56;73.73;92850.56;5049748;28;20079;-68
2020/12/14 02:55:31;;;;;;;1.60;1.15;;;;;;;4.59;73.52;92865.19;5047700;28;20028;-69
2020/12/14 02:57:56;;;;;;;1.30;1.10;;;;;;;4.46;73.77;92846.03;5047713;28;20036;-68
2020/12/14 03:00:22;;;;;;;1.23;1.02;;;;;;;4.43;73.58;92853.28;5047558;28;20021;-67
2020/12/14 03:02:48;;;;;;;1.15;1.05;;;;;;;4.52;72.92;92869.28;5048180;28;20053;-67
2020/12/14 03:05:13;;;;;;;2.05;1.40;;;;;;;4.53;73.69;92865.28;5046043;28;20123;-67
2020/12/14 03:07:38;;;;;;;3.08;0.98;;;;;;;4.55;73.43;92853.81;5047514;28;20025;-68
2020/12/14 03:10:05;;;;;;;1.50;1.00;;;;;;;4.53;73.47;92846.13;5045379;28;20062;-68
2020/12/14 03:12:32;;;;;;;1.10;1.02;;;;;;;4.41;73.89;92850.34;5047522;28;20090;-68
2020/12/14 03:14:59;;;;;;;1.10;0.90;;;;;;;4.41;73.74;92858.53;5047994;28;20028;-68
2020/12/14 03:17:24;;;;;;;0.93;0.93;;;;;;;4.14;73.50;92831.66;5048528;28;20037;-68
2020/12/14 03:19:50;;;;;;;2.28;1.30;;;;;;;4.44;73.55;92848.56;5049296;28;20021;-68
2020/12/14 03:22:15;;;;;;;1.67;1.08;;;;;;;4.43;73.30;92850.56;5049014;28;20028;-68
2020/12/14 03:24:40;;;;;;;2.42;1.67;;;;;;;4.38;73.97;92859.56;5047249;28;20020;-68
2020/12/14 03:27:06;;;;;;;2.33;1.02;;;;;;;4.11;74.75;92857.31;5044354;28;20025;-68
2020/12/14 03:29:31;;;;;;;2.13;1.35;;;;;;;4.10;75.29;92858.56;5042314;28;20032;-68
2020/12/14 03:31:57;;;;;;;1.55;1.30;;;;;;;4.07;75.90;92862.34;5044909;28;20112;-69
2020/12/14 03:34:22;;;;;;;1.75;1.65;;;;;;;4.05;75.44;92873.78;5044409;28;20202;-69
2020/12/14 03:36:48;;;;;;;1.98;1.20;;;;;;;4.06;76.00;92880.72;5044057;28;20025;-69
2020/12/14 03:39:13;;;;;;;2.40;1.58;;;;;;;4.17;75.62;92869.63;5048802;28;20029;-68
2020/12/14 03:41:38;;;;;;;2.03;1.50;;;;;;;4.06;75.94;92880.72;5046766;28;20028;-69
2020/12/14 03:44:04;;;;;;;1.55;1.30;;;;;;;3.99;76.46;92870.41;5045757;28;20483;-69
2020/12/14 03:46:34;;;;;;;1.98;1.70;;;;;;;4.07;76.42;92870.53;5046069;28;20043;-69
2020/12/14 03:49:00;;;;;;;4.45;2.80;;;;;;;4.25;75.92;92886.88;5045613;28;20443;-69
2020/12/14 03:51:26;;;;;;;3.67;1.80;;;;;;;4.30;75.54;92868.91;5046449;28;20028;-69
2020/12/14 03:53:52;;;;;;;1.80;1.70;;;;;;;4.34;75.13;92874.81;5040052;28;20025;-68
2020/12/14 03:56:19;;;;;;;1.98;1.60;;;;;;;4.06;74.65;92853.41;5041417;28;20029;-69
2020/12/14 03:58:44;;;;;;;2.15;1.70;;;;;;;4.28;74.69;92890.56;5042801;28;20496;-69
2020/12/14 04:01:12;;;;;;;7.78;3.80;;;;;;;4.27;75.05;92886.34;5042984;28;20039;-69
2020/12/14 04:03:37;;;;;;;14.20;5.10;;;;;;;4.00;75.06;92860.97;5042274;28;20083;-70
2020/12/14 04:06:03;;;;;;;14.15;6.15;;;;;;;4.13;75.53;92884.84;5045726;28;20032;-69
2020/12/14 04:08:28;;;;;;;3.65;2.70;;;;;;;4.02;75.57;92883.03;5041403;28;20499;-69
2020/12/14 04:10:54;;;;;;;6.68;3.20;;;;;;;3.95;76.37;92883.63;5044643;28;20104;-68
2020/12/14 04:13:19;;;;;;;3.05;1.90;;;;;;;3.89;75.85;92880.25;5047752;28;20040;-68
2020/12/14 04:15:45;;;;;;;2.30;1.70;;;;;;;3.91;76.09;92888.66;5040938;28;20028;-69
2020/12/14 04:18:10;;;;;;;4.55;2.95;;;;;;;3.99;75.51;92870.41;5046047;28;20035;-69
2020/12/14 04:20:36;;;;;;;6.03;3.80;;;;;;;3.98;75.54;92892.78;5048133;28;20496;-69
2020/12/14 04:23:01;;;;;;;3.65;2.72;;;;;;;4.01;75.65;92894.44;5044087;28;20027;-70
2020/12/14 04:25:27;;;;;;;3.63;1.95;;;;;;;4.08;75.32;92891.84;5044743;28;20033;-69
2020/12/14 04:27:52;;;;;;;4.50;2.47;;;;;;;4.02;74.88;92891.22;5045913;28;20021;-69
2020/12/14 04:30:18;;;;;;;2.25;1.73;;;;;;;3.86;74.95;92878.53;5044683;28;20558;-69
2020/12/14 04:32:44;;;;;;;2.55;1.80;;;;;;;4.10;74.83;92918.66;5045661;28;20021;-69
2020/12/14 04:35:10;;;;;;;3.88;2.33;;;;;;;4.02;75.56;92913.06;5044307;28;20055;-69
2020/12/14 04:37:35;;;;;;;1.98;1.80;;;;;;;4.01;75.39;92894.44;5045303;28;20513;-68
2020/12/14 04:40:01;;;;;;;6.60;2.40;;;;;;;4.06;75.30;92899.84;5046232;28;20514;-68
2020/12/14 04:42:28;;;;;;;3.05;2.22;;;;;;;3.96;75.81;92903.47;5044551;28;20021;-68
2020/12/14 04:44:54;;;;;;;4.47;2.90;;;;;;;3.95;76.30;92910.19;5043660;28;20102;-68
2020/12/14 04:47:19;;;;;;;4.72;2.97;;;;;;;3.93;76.38;92921.63;5042662;28;20025;-69
2020/12/14 04:49:46;;;;;;;4.95;2.70;;;;;;;3.96;76.69;92919.88;5046389;28;20029;-68
2020/12/14 04:52:13;;;;;;;4.45;2.95;;;;;;;3.97;76.72;92929.53;5041553;28;20025;-68
2020/12/14 04:54:39;;;;;;;5.30;3.08;;;;;;;3.97;76.26;92926.78;5044411;28;20024;-68
2020/12/14 04:57:07;;;;;;;6.45;3.15;;;;;;;3.96;76.71;92928.81;5041127;28;20032;-68
2020/12/14 04:59:33;;;;;;;4.57;3.42;;;;;;;3.90;76.62;92944.50;5044075;28;20032;-68
2020/12/14 05:02:09;;;;;;;4.07;2.92;;;;;;;3.89;76.68;92939.56;5042849;28;20454;-68
2020/12/14 05:04:36;;;;;;;4.57;3.22;;;;;;;3.72;76.64;92932.38;5044906;28;20025;-68
2020/12/14 05:07:02;;;;;;;6.22;3.90;;;;;;;3.67;77.65;92932.44;5044489;28;20107;-67
2020/12/14 05:09:27;;;;;;;4.47;2.97;;;;;;;3.71;77.29;92939.06;5042925;28;20148;-68
2020/12/14 05:11:53;;;;;;;6.53;2.90;;;;;;;3.72;77.58;92934.34;5044885;28;20021;-67
2020/12/14 05:14:20;;;;;;;5.63;3.70;;;;;;;3.76;77.80;92968.28;5043776;28;20024;-67
2020/12/14 05:16:47;;;;;;;5.32;3.22;;;;;;;3.82;77.68;92962.75;5040588;28;20017;-68
2020/12/14 05:19:30;;;;;;;5.88;3.75;;;;;;;3.84;77.84;92971.16;5042399;28;20059;-69
2020/12/14 05:21:59;;;;;;;6.20;4.18;;;;;;;3.78;78.00;92976.72;5043729;28;20087;-68
2020/12/14 05:24:30;;;;;;;4.85;3.08;;;;;;;3.67;78.65;92978.84;5044498;28;20068;-68
2020/12/14 05:26:56;;;;;;;5.18;3.60;;;;;;;3.68;78.63;92983.06;5039177;28;20495;-68
2020/12/14 05:29:26;;;;;;;5.50;3.22;;;;;;;3.69;78.65;92987.25;5040350;28;20028;-67
2020/12/14 05:32:05;;;;;;;8.48;5.20;;;;;;;3.68;78.84;93002.16;5042030;28;20491;-68
2020/12/14 05:34:35;;;;;;;5.88;3.58;;;;;;;3.57;78.03;93003.00;5042840;28;20053;-68
2020/12/14 05:37:04;;;;;;;13.50;5.75;;;;;;;3.62;78.73;92987.81;5044202;28;20044;-68
2020/12/14 05:39:30;;;;;;;9.23;5.53;;;;;;;3.50;78.17;92979.03;5021955;28;20401;-69
2020/12/14 05:42:18;;;;;;;23.50;12.18;;;;;;;3.82;77.43;93014.63;5029199;28;20091;-68
2020/12/14 05:44:46;;;;;;;11.70;6.38;;;;;;;3.81;77.47;93018.63;5041840;28;20057;-69
2020/12/14 05:47:34;;;;;;;7.57;4.65;;;;;;;3.75;78.29;93012.47;5042215;28;20103;-69
2020/12/14 05:50:00;;;;;;;6.65;3.90;;;;;;;3.82;77.85;93028.28;5041717;28;20037;-68
2020/12/14 05:52:34;;;;;;;6.25;3.83;;;;;;;3.80;78.37;93023.34;5044771;28;20124;-68
2020/12/14 05:55:04;;;;;;;6.25;3.45;;;;;;;3.78;78.08;93025.09;5041611;28;20032;-69
2020/12/14 05:57:33;;;;;;;5.00;3.15;;;;;;;3.88;77.12;93036.41;5038590;28;20060;-68
2020/12/14 06:00:03;;;;;;;6.80;4.57;;;;;;;3.78;76.99;93008.72;5040385;28;20804;-68
2020/12/14 06:02:28;;;;;;;;;;;;;;;3.92;76.44;93042.31;5042130;28;20031;-69
2020/12/14 06:04:55;;;;;;;4.22;2.95;;;;;;;3.97;75.79;93042.25;5042092;28;19921;-69
2020/12/14 06:07:24;;;;;;;6.00;3.53;;;;;;;3.97;75.68;93050.44;5022564;28;20041;-69
2020/12/14 06:10:01;;;;;;;6.45;3.72;;;;;;;4.02;75.13;93060.56;5042762;28;20029;-68
2020/12/14 06:12:30;;;;;;;4.28;2.85;;;;;;;4.14;74.50;93058.41;5043122;28;20044;-68
2020/12/14 06:15:00;;;;;;;4.53;2.25;;;;;;;4.10;74.50;93064.19;5037353;28;20489;-68
2020/12/14 06:17:28;;;;;;;2.63;2.13;;;;;;;3.88;74.24;93064.44;5043934;28;20036;-67
2020/12/14 06:20:16;;;;;;;2.83;2.20;;;;;;;3.99;74.31;93061.59;5038281;28;20436;-71
2020/12/14 06:22:58;;;;;;;6.63;3.50;;;;;;;3.90;75.44;93067.41;5035672;28;20068;-72
2020/12/14 06:25:24;;;;;;;9.65;4.53;;;;;;;4.01;75.50;93064.53;5041690;28;20725;-70
2020/12/14 06:27:50;;;;;;;26.85;10.35;;;;;;;4.08;75.05;93071.41;5041869;28;20030;-69
2020/12/14 06:30:35;;;;;;;14.93;6.88;;;;;;;4.16;74.86;93066.84;5033071;28;20115;-71
2020/12/14 06:33:12;;;;;;;8.30;4.63;;;;;;;4.12;74.37;93075.31;5033314;28;20455;-71
2020/12/14 06:35:41;;;;;;;10.65;4.57;;;;;;;4.26;73.19;93085.09;5035553;28;20448;-70
2020/12/14 06:38:07;;;;;;;12.70;6.00;;;;;;;4.29;73.38;93083.28;5030786;28;20044;-69
2020/12/14 06:40:58;;;;;;;21.65;6.97;;;;;;;4.25;73.44;93093.78;5035925;28;20032;-70
2020/12/14 06:43:34;;;;;;;3.38;2.25;;;;;;;4.15;73.55;93101.63;5026516;28;20125;-71
2020/12/14 06:46:03;;;;;;;7.47;4.07;;;;;;;4.17;73.88;93088.19;5037914;28;20481;-73
2020/12/14 06:48:45;;;;;;;3.50;1.92;;;;;;;3.92;74.65;93075.81;5033602;28;20078;-72
2020/12/14 06:51:13;;;;;;;5.72;2.92;;;;;;;4.07;74.03;93089.78;5030313;28;20021;-69
2020/12/14 06:53:52;;;;;;;5.40;2.90;;;;;;;3.95;75.27;93096.66;5031544;28;20063;-69
2020/12/14 06:56:26;;;;;;;;;;;;;;;4.04;75.34;93103.75;5035866;28;20071;-68
2020/12/14 06:58:53;;;;;;;3.75;2.33;;;;;;;3.94;75.40;93108.84;5037105;28;19912;-69
2020/12/14 07:01:38;;;;;;;10.13;4.20;;;;;;;4.00;75.02;93112.25;5037913;28;20020;-68
2020/12/14 07:04:15;;;;;;;6.40;3.00;;;;;;;4.01;74.94;93127.34;5038994;28;20029;-69
2020/12/14 07:06:40;;;;;;;6.40;3.78;;;;;;;3.83;74.63;93084.38;5038469;28;20021;-68
2020/12/14 07:09:25;;;;;;;5.03;2.35;;;;;;;4.01;75.01;93124.63;5040561;28;20454;-68
2020/12/14 07:11:51;;;;;;;2.35;1.60;;;;;;;3.84;75.35;93083.88;5046057;28;20025;-69
2020/12/14 07:14:29;;;;;;;3.90;2.53;;;;;;;4.01;76.10;93121.16;5044745;28;20032;-69
2020/12/14 07:17:01;;;;;;;4.00;2.58;;;;;;;3.86;76.17;93105.19;5045479;28;20087;-69
2020/12/14 07:19:36;;;;;;;2.25;1.48;;;;;;;3.96;76.81;93122.72;5044596;28;20040;-70
2020/12/14 07:22:02;;;;;;;3.20;2.30;;;;;;;4.06;76.32;93126.56;5043187;28;20021;-69
2020/12/14 07:24:34;;;;;;;4.90;2.83;;;;;;;3.93;76.94;93114.78;5043968;28;20033;-68
2020/12/14 07:27:00;;;;;;;5.47;2.38;;;;;;;4.01;76.97;93127.34;5044730;28;20025;-67
2020/12/14 07:29:26;;;;;;;5.55;3.22;;;;;;;4.03;77.25;93133.03;5040984;28;20032;-72
2020/12/14 07:31:52;;;;;;;2.38;1.83;;;;;;;4.09;76.42;93135.72;5042488;28;20029;-69
2020/12/14 07:34:17;;;;;;;1.60;1.50;;;;;;;4.02;76.81;93130.84;5045977;28;20037;-71
2020/12/14 07:36:43;;;;;;;3.85;1.77;;;;;;;4.04;76.77;93134.53;5044071;28;20048;-70
2020/12/14 07:39:08;;;;;;;7.68;4.13;;;;;;;4.04;77.36;93136.53;5044018;28;20024;-70
2020/12/14 07:41:33;;;;;;;7.82;3.83;;;;;;;4.08;77.19;93142.44;5041114;28;20031;-69
2020/12/14 07:44:00;;;;;;;5.13;2.72;;;;;;;4.00;76.92;93125.91;5039509;28;20036;-70
2020/12/14 07:46:33;;;;;;;3.17;2.17;;;;;;;4.15;76.98;93152.78;5040187;28;20037;-70
2020/12/14 07:49:12;;;;;;;1.85;1.45;;;;;;;4.15;75.93;93153.53;5023340;28;20458;-69
2020/12/14 07:51:44;;;;;;;2.78;1.40;;;;;;;4.10;76.53;93135.22;5041102;28;20040;-68
2020/12/14 07:54:18;;;;;;;2.47;1.65;;;;;;;4.07;76.97;93151.91;5037754;28;20033;-69
2020/12/14 07:56:45;;;;;;;1.85;1.17;;;;;;;4.04;76.82;93156.38;5041872;28;20048;-69
2020/12/14 07:59:22;;;;;;;1.80;1.70;;;;;;;4.04;76.66;93140.00;5043033;28;20037;-68
2020/12/14 08:01:48;;;;;;;5.13;3.92;;;;;;;4.16;76.06;93157.72;5039690;28;20503;-69
2020/12/14 08:04:21;;;;;;;2.63;2.25;;;;;;;4.04;76.46;93148.19;5040353;28;20036;-69
2020/12/14 08:06:49;;;;;;;1.83;1.42;;;;;;;4.03;76.12;93148.72;5039505;28;20514;-69
2020/12/14 08:09:20;;;;;;;2.75;1.73;;;;;;;4.11;76.08;93153.09;5038961;28;20045;-68
2020/12/14 08:11:46;;;;;;;2.60;2.28;;;;;;;3.94;76.08;93138.13;5041226;28;20036;-69
2020/12/14 08:14:16;;;;;;;2.25;1.70;;;;;;;4.01;76.43;93134.81;5040512;28;21430;-69
2020/12/14 08:16:42;;;;;;;2.28;1.48;;;;;;;3.96;76.16;93143.81;5042454;28;21552;-69
2020/12/14 08:19:14;;;;;;;2.67;2.08;;;;;;;4.06;76.24;93159.34;5039309;28;20039;-68
2020/12/14 08:21:40;;;;;;;2.75;2.00;;;;;;;4.07;76.41;93160.81;5039407;28;20116;-68
2020/12/14 08:24:09;;;;;;;5.28;2.45;;;;;;;4.03;75.75;93156.91;5042937;28;20151;-71
2020/12/14 08:26:36;;;;;;;1.63;1.27;;;;;;;3.97;76.72;93169.88;5043262;28;20669;-69
2020/12/14 08:29:02;;;;;;;4.78;2.30;;;;;;;3.92;77.17;93155.00;5044061;28;21825;-68
2020/12/14 08:31:28;;;;;;;2.70;1.30;;;;;;;4.10;76.21;93169.97;5043747;28;20512;-69
2020/12/14 08:33:55;;;;;;;2.75;1.60;;;;;;;4.06;76.03;93159.34;5042119;28;20046;-68
2020/12/14 08:36:21;;;;;;;5.13;3.00;;;;;;;4.20;76.06;93166.38;5040112;28;20112;-68
2020/12/14 08:38:48;;;;;;;5.72;2.42;;;;;;;4.19;75.56;93170.38;5035962;28;20021;-68
2020/12/14 08:41:19;;;;;;;5.03;2.90;;;;;;;4.15;75.92;93169.94;5043208;28;20491;-70
2020/12/14 08:43:44;;;;;;;7.30;3.83;;;;;;;4.01;75.74;93148.47;5024693;28;20464;-71
2020/12/14 08:46:14;;;;;;;5.05;2.47;;;;;;;3.94;75.78;93163.47;5040807;28;20037;-70
2020/12/14 08:48:52;;;;;;;4.40;2.03;;;;;;;4.09;75.68;93165.78;5041317;28;21782;-71
2020/12/14 08:51:23;;;;;;;1.80;1.33;;;;;;;4.16;75.68;93182.31;5042642;28;20187;-73
2020/12/14 08:53:51;;;;;;;6.75;3.40;;;;;;;4.31;74.75;93174.44;5041639;28;20564;-71
2020/12/14 08:56:21;;;;;;;7.60;3.53;;;;;;;4.37;75.12;93164.22;5042425;28;20428;-69
2020/12/14 08:58:53;;;;;;;8.65;4.53;;;;;;;4.55;74.97;93176.38;5040462;28;20516;-69
2020/12/14 09:01:30;;;;;;;10.52;4.22;;;;;;;4.60;74.54;93176.34;5040488;28;20508;-71
2020/12/14 09:03:57;;;;;;;5.97;3.53;;;;;;;4.69;73.90;93174.47;5038032;28;20036;-68
2020/12/14 09:06:24;;;;;;;4.25;2.75;;;;;;;4.76;73.64;93168.44;5035686;28;20037;-70
2020/12/14 09:09:10;;;;;;;5.65;2.85;;;;;;;4.79;72.63;93172.84;5035733;28;20468;-69
2020/12/14 09:11:37;;;;;;;8.27;3.35;;;;;;;4.61;73.05;93155.94;5041553;28;20020;-70
2020/12/14 09:14:05;;;;;;;2.92;1.45;;;;;;;4.67;73.56;93177.00;5038859;28;20104;-68
2020/12/14 09:16:32;;;;;;;12.27;4.33;;;;;;;4.79;73.07;93172.84;5040614;28;20040;-68
2020/12/14 09:18:58;;;;;;;6.78;3.08;;;;;;;4.72;73.16;93173.47;5036835;28;20035;-69
2020/12/14 09:21:23;;;;;;;10.82;4.93;;;;;;;4.76;73.30;93174.63;5040261;28;20028;-69
2020/12/14 09:24:16;;;;;;;5.35;2.70;;;;;;;4.73;72.08;93174.91;5041196;28;20135;-66
2020/12/14 09:26:43;;;;;;;10.10;4.57;;;;;;;4.61;72.03;93158.66;5039775;28;20477;-69
2020/12/14 09:29:09;;;;;;;8.30;3.42;;;;;;;4.74;72.63;93173.69;5041326;28;20029;-69
2020/12/14 09:31:35;;;;;;;7.28;4.60;;;;;;;4.57;72.55;93158.22;5042806;28;20029;-70
2020/12/14 09:34:00;;;;;;;9.30;5.93;;;;;;;4.39;71.92;93150.75;5036075;28;20492;-68
2020/12/14 09:36:26;;;;;;;19.00;8.18;;;;;;;4.52;72.01;93174.72;5031456;28;20060;-69
2020/12/14 09:38:54;;;;;;;7.30;4.70;;;;;;;4.45;72.31;93167.81;5026758;28;20481;-69
2020/12/14 09:41:21;;;;;;;5.30;3.55;;;;;;;4.47;72.52;93170.78;5018236;28;20024;-70
2020/12/14 09:43:46;;;;;;;3.10;2.28;;;;;;;4.45;72.68;93156.91;5039559;28;20495;-71
2020/12/14 09:46:12;;;;;;;3.33;2.10;;;;;;;4.33;72.34;93144.59;5038953;28;20037;-70
2020/12/14 09:48:37;;;;;;;4.85;2.75;;;;;;;4.46;72.47;93158.34;5040238;28;20036;-70
2020/12/14 09:51:04;;;;;;;6.18;3.45;;;;;;;4.51;73.22;93165.75;5040607;28;20094;-71
2020/12/14 09:53:30;;;;;;;7.93;4.05;;;;;;;4.49;73.20;93160.06;5037570;28;20040;-71
2020/12/14 09:55:55;;;;;;;4.75;2.72;;;;;;;4.50;72.64;93156.06;5040584;28;20035;-70
2020/12/14 09:58:20;;;;;;;4.55;2.90;;;;;;;4.44;72.14;93141.72;5036619;28;20122;-70
2020/12/14 10:00:46;;;;;;;4.68;2.70;;;;;;;4.46;72.80;93146.72;5040345;28;20788;-70
2020/12/14 10:03:11;;;;;;;6.18;3.28;;;;;;;4.34;73.08;93137.16;5043863;28;20028;-71
2020/12/14 10:05:37;;;;;;;1.55;1.25;;;;;;;4.23;72.60;93146.22;5043118;28;20032;-70
2020/12/14 10:08:02;;;;;;;3.90;1.58;;;;;;;4.35;72.66;93149.56;5038270;28;20044;-70
2020/12/14 10:10:28;;;;;;;29.70;14.20;;;;;;;4.35;72.58;93135.91;5024268;28;20463;-70
2020/12/14 10:12:59;;;;;;;8.77;5.72;;;;;;;4.34;73.49;93148.84;5041083;28;20048;-71
2020/12/14 10:15:24;;;;;;;2.28;1.60;;;;;;;4.39;73.28;93153.50;5043575;28;20363;-70
2020/12/14 10:17:50;;;;;;;2.97;1.38;;;;;;;4.42;71.86;93154.44;5040539;28;20051;-70
2020/12/14 10:20:16;;;;;;;2.80;1.60;;;;;;;4.28;72.31;93169.28;5043178;28;20423;-69
2020/12/14 10:22:41;;;;;;;5.15;2.40;;;;;;;4.36;72.07;93165.44;5042393;28;20043;-71
2020/12/14 10:25:06;;;;;;;3.90;1.92;;;;;;;4.33;72.82;93160.28;5040223;28;20037;-70
2020/12/14 10:27:32;;;;;;;3.17;2.40;;;;;;;4.31;71.70;93168.25;5039945;28;20037;-71
2020/12/14 10:29:57;;;;;;;8.63;2.85;;;;;;;4.18;73.25;93166.16;5040834;28;20037;-69
2020/12/14 10:32:23;;;;;;;1.88;1.58;;;;;;;4.07;73.00;93160.09;5038842;28;20354;-68
2020/12/14 10:34:48;;;;;;;2.25;1.17;;;;;;;4.22;72.44;93163.16;5039307;28;20539;-69
2020/12/14 10:37:14;;;;;;;2.78;1.70;;;;;;;4.16;71.88;93163.19;5039445;28;20033;-69
2020/12/14 10:39:39;;;;;;;9.82;4.25;;;;;;;4.07;72.07;93155.34;5042508;28;20029;-68
2020/12/14 10:42:04;;;;;;;2.78;1.52;;;;;;;4.17;71.94;93153.00;5041643;28;20032;-69
2020/12/14 10:44:30;;;;;;;4.05;1.98;;;;;;;4.17;72.83;93161.22;5045458;28;20025;-69
2020/12/14 10:47:05;;;;;;;4.68;1.33;;;;;;;4.09;72.11;93171.25;5045376;28;20047;-69
2020/12/14 10:49:31;;;;;;;10.77;3.55;;;;;;;4.07;72.05;93171.00;5044165;28;20087;-69
2020/12/14 10:51:56;;;;;;;2.80;1.52;;;;;;;3.86;72.72;93140.69;5044529;28;20081;-68
2020/12/14 10:54:22;;;;;;;11.18;5.22;;;;;;;3.83;73.34;93161.56;5046574;28;20025;-68
2020/12/14 10:56:47;;;;;;;1.75;1.27;;;;;;;3.98;73.61;93165.91;5043282;28;20562;-69
2020/12/14 10:59:12;;;;;;;2.63;1.55;;;;;;;3.77;73.76;93144.50;5043842;28;20040;-69
2020/12/14 11:01:38;;;;;;;0.95;0.80;;;;;;;3.84;73.95;93151.38;5044806;28;20021;-70
2020/12/14 11:04:03;;;;;;;1.85;1.30;;;;;;;3.80;73.53;93154.41;5046127;28;20040;-70
2020/12/14 11:06:30;;;;;;;1.83;0.98;;;;;;;3.98;73.85;93166.63;5046500;28;20116;-70
2020/12/14 11:08:56;;;;;;;2.60;2.35;;;;;;;3.99;74.33;93170.09;5047654;28;20033;-70
2020/12/14 11:11:21;;;;;;;2.08;1.40;;;;;;;4.02;74.60;93174.53;5045518;28;20033;-71
2020/12/14 11:13:48;;;;;;;1.23;1.13;;;;;;;4.03;74.53;93170.56;5044520;28;20116;-70
2020/12/14 11:16:13;;;;;;;1.35;1.10;;;;;;;4.05;74.23;93179.72;5047054;28;20082;-70
2020/12/14 11:18:39;;;;;;;4.43;1.98;;;;;;;4.12;74.42;93175.66;5045504;28;20025;-71
2020/12/14 11:21:04;;;;;;;11.63;4.55;;;;;;;4.06;74.97;93166.78;5044730;28;20112;-71
2020/12/14 11:23:30;;;;;;;7.70;3.17;;;;;;;4.17;74.23;93148.28;5046279;28;20048;-72
2020/12/14 11:25:55;;;;;;;1.35;1.00;;;;;;;4.44;73.82;93174.53;5046675;28;20041;-70
2020/12/14 11:28:21;;;;;;;0.52;0.50;;;;;;;4.30;72.56;93156.59;5044724;28;20094;-71
2020/12/14 11:30:46;;;;;;;0.80;0.80;;;;;;;4.37;72.94;93180.59;5041185;28;20061;-70
2020/12/14 11:33:11;;;;;;;0.90;0.90;;;;;;;4.48;72.24;93169.50;5044894;28;20079;-70
2020/12/14 11:35:37;;;;;;;1.20;1.10;;;;;;;4.35;71.81;93169.44;5046555;28;20057;-70
2020/12/14 11:38:02;;;;;;;0.82;0.82;;;;;;;4.39;72.68;93169.16;5042626;28;20041;-71
2020/12/14 11:40:28;;;;;;;0.40;0.40;;;;;;;4.32;71.21;93175.94;5039825;28;20033;-69
2020/12/14 11:42:53;;;;;;;0.50;0.50;;;;;;;4.31;72.67;93166.25;5044141;28;20032;-71